Sold Report

Homes Sold in Highland Lakes

Highland Lakes Sold Report

Thinking about entering the Central Ohio real estate market as a home buyer or home seller?

If so, we suggest that you browse our numerous neighborhood sold reports, including the one below for Highland Lakes.

These reports provide you with such useful information as:

  • Which homes have sold in Highland Lakes
  • Selling Prices for recently sold Highland Lakes homes
  • Information on how long Highland Lakes homes stayed on the market
  • And more!

We create these FREE sold reports for nearly every Central Ohio neighborhood, including Alban Mews and Bexley.

Interested in learning more about how we can make your Central Ohio real estate transaction as seamless as possible? Then contact usThe Raines Group, today!

 Sold Date
 Address
 Beds
 Baths
 +HBaths
 List Price
 Sold Price
 DOM
 
03/31/15 5622 Saint Andrews Drive 4 2 1 $324,900 $320,000 2
03/30/15 5904 Bretton Place 4 2 2 $350,000 $350,000 6
03/30/15 6057 Tournament Drive 3 3 0 $364,900 $355,000 57
03/25/15 6533 Hermitage Drive 4 2 1 $275,000 $277,000 3
03/24/15 6763 Callaway Court 3 2 1 $250,000 $243,000 12
03/20/15 5385 Turnberry Drive 3 2 1 $229,900 $235,000 19
03/19/15 6092 Tournament Drive 4 2 1 $319,990 $319,900 112
03/18/15 6101 Gainey Court 4 2 1 $404,500 $388,000 13
03/18/15 6515 Colonial Place 3 3 1 $439,900 $430,000 18
03/02/15 5220 Saint Andres Drive 3 2 1 $299,900 $290,000 98
02/25/15 5272 Langwell Drive 2 2 0 $239,900 $239,900 11
02/20/15 4550 Coldstream Court 4 4 1 $489,900 $467,000 152
02/19/15 5147 Sierra Drive 3 2 1 $321,970 $318,000 143
02/18/15 5035 St. Andrews Drive 4 2 1 $267,000 $248,500 260
02/02/15 5614 Turnberry Drive 3 2 0 $299,900 $285,900 119
01/30/15 4838 St Medan Drive 3 2 0 $339,900 $328,900 142
01/28/15 4570 Sanctuary Drive 4 3 2 $469,900 $458,860 98
01/16/15 6905 Sunningdale Drive 4 2 1 $249,900 $230,000 40
01/05/15 5690 Stillwater Avenue  4 2 1 $369,000 $353,000 157
01/02/15 5051 Highland Lakes Avenue 6 4 2 $599,800 $553,200 199
12/24/14 5533 Long Cove Court 4 2 1 $299,000 $285,000 40
12/22/14 5920 Gainey Court 4 4 1 $499,900 $485,000 146
12/19/14 6393 Tournament Drive 3 2 0 $299,690 $299,690 39
12/18/14 5469 Quail Hollow Way 4 3 0 $399,900 $385,000 62
12/17/14 6026 Commonwealth Dr 5 2 1 $337,500 $324,000 82
12/12/14 4517 Sanctuary Drive 5 3 2 $603,224 $603,224 45
12/11/14 5107 Augusta Drive 4 5 1 $639,000 $615,000 127
12/11/14 6918 Peachtree Circle 4 2 1 $227,500 $219,129 125
12/05/14 5882 Pine Wild Drive 5 3 1 $262,000 $261,500 39
11/24/14 5312 Somerset Avenue 4 3 0 $380,000 $380,000 10
11/21/14 6582 Kenwood Place 3 3 1 $379,777 $362,000 35
11/14/14 5719 Torrey Pines Avenue 5 4 1 $599,000 $560,000 136
11/14/14 5205 Leydorf Lane 4 3 0 $325,000 $340,000 29
11/11/14 5737 Alston Grove Drive 4 2 2 $395,000 $412,000 2
11/10/14 5550 Forest Highland Ct 4 3 1 $439,900 $417,900 24
11/10/14 6388 La Casa Court 4 2 1 $322,900 $318,000 15
11/03/14 5042 Oakmont Place 4 3 1 $629,900 $590,000 82
10/24/14 6407 Tournament Drive 3 2 1 $349,000 $270,000 13
10/20/14 4688 Sanctuary Drive 4 3 2 $480,900 $468,645 79
10/17/14 5600 Tacoma Lane 4 2 1 $315,000 $305,000 155
10/15/14 5836 Ridgewood Avenue 4 2 1 $325,000 $305,000 72
10/14/14 6233 Interlachen Avenue 4 3 1 $309,900 $311,400 18
10/06/14 5014 St Andrews Drive 3 2 1 $299,000 $299,000 67
10/06/14 5242 Augusta Drive 4 2 1 $380,000 $365,000 301
10/01/14 5464 Forest Highland Ct 4 2 2 $399,900 $390,000 73
10/01/14 6000 Congressional Drive 4 2 1 $294,900 $288,000 8
09/30/14 6555 Upper Lake Cir 3 2 1 $214,900 $214,900 4
09/30/14 6657 Hermitage Dr 3 2 1 $289,000 $286,000 25
09/30/14 6940 Stillwater Cove 5 4 2 $899,900 $860,000 550
09/25/14 4560 Pine Tree Ct 4 4 1 $598,000 $573,000 286
09/24/14 5690 Pine Wild Dr 4 2 1 $270,000 $257,000 21
09/22/14 6573 Kenwood Pl 3 3 0 $319,900 $310,000 49
09/22/14 5087 Oakmont Pl 4 4 1 $550,000 $515,000 49
09/22/14 6991 Pine Valley Ln 4 4 1 $519,900 $500,000 101
09/19/14 6674 Hermitage Dr 3 2 1 $324,315 $319,500 13
09/15/14 5510 Bellerive Pl 4 3 1 $359,900 $359,900 3
09/11/14 4578 Pine Tree Ct 4 4 1 $489,000 $485,000 181
09/02/14 5558 Troon Pl 5 4 2 $475,000 $468,000 17
08/29/14 5383 Ainsley Dr 4 3 0 $305,000 $305,000 134
08/29/14 6090 Maidstone Ct 4 2 1 $239,750 $229,000 8
08/29/14 6068 Commonwealth Dr 4 2 1 $319,900 $318,000 16
08/28/14 7060 Spyglass Ct 4 3 1 $345,000 $332,500 9
08/25/14 6126 Sawgrass Way 4 2 1 $349,900 $345,000 39
08/22/14 5076 St Andrews Dr 4 2 1 $340,000 $320,000 192
08/22/14 6757 Inverness St 3 2 1 $241,950 $252,517 4
08/22/14 6024 Haig Point Ct 4 2 2 $395,000 $377,000 71
08/21/14 5914 Gainey Ct 4 3 1 $429,900 $421,000 82
08/21/14 6343 Pinehurst Pointe 3 2 0 $172,900 $172,900 4
08/20/14 5861 Pine Wild Dr 4 2 1 $244,900 $245,000 3
08/15/14 5142 Bardon Dr 2 2 1 $248,900 $239,000 54
08/15/14 5579 Shiloh Spring Dr 3 2 1 $315,000 $308,900 78
08/15/14 5868 Tournament Dr 2 2 0 $269,900 $267,500 10
08/13/14 6019 Haig Point Ct 4 2 1 $369,900 $349,900 32
08/04/14 6364 Tournament Dr 3 2 2 $359,900 $355,000 10
08/04/14 5045 Thornwood Dr 4 2 1 $359,900 $359,400 44
08/04/14 5005 Oakmont Pl 3 2 1 $495,000 $475,000 40
08/01/14 6868 Temperance Point 4 5 1 $1,189,000 $1,179,900 19
08/01/14 5317 Ainsley Dr 3 2 1 $339,000 $339,000 4
07/31/14 6398 Mission Hills Pl 3 2 0 $171,900 $174,500 1
07/30/14 6897 Temperance Point 5 5 2 $1,250,000 $1,100,000 189
07/30/14 7021 Stillwater Cove 5 5 0 $529,900 $529,900 400
07/29/14 6685 Highland Lakes Pl 6 6 2 $1,250,000 $1,100,000 467
07/25/14 6250 Champions Dr 4 2 1 $299,900 $298,000 5
07/20/14 5395 Anacala Ct 5 4 1 $499,900 $492,000 70
07/17/14 6145 Tournament Dr 3 3 1 $473,810 $588,165 21
07/15/14 7086 Cypress Dr 4 2 1 $289,900 $289,900 21
07/10/14 5650 Twin Lakes Ct 4 4 1 $489,900 $468,750 20
07/08/14 5825 Pebble Beach Pl 4 2 1 $229,900 $239,000 10
07/07/14 5765 Pine Wild Dr 4 2 1 $240,000 $238,000 4
07/03/14 5578 Alston Grove Dr 3 2 2 $334,000 $319,700 111
07/02/14 6954 Pine Valley Ln 4 3 2 $679,900 $655,000 30
07/02/14 6905 Temperance Point 4 4 2 $649,900 $613,750 182

Market Summary

10/1/14 - 4/1/15
 10/1/13 - 4/1/14  
 % Change 
# Sold  47 45 4%
Average List Price  $351,294 $352,382 0%
Average Sales Price  $346,022 $343,687 1%
Average $ per Sq. Ft. $113.96 $122.23 -7%
Days on Market  76 68 12%
# Active  32 - -

View More Sold Reports